sensor_id;sensor_type;location;lat;lon;timestamp;noise_LAeq;noise_LA_min;noise_LA_max;noise_LA01;noise_LA95
69619;Laerm;57653;51.434;5.984;2023-03-01T00:00:08;34.56;30.72;45.88;;
69619;Laerm;57653;51.434;5.984;2023-03-01T00:00:19;35.94;31.92;42.99;;
69619;Laerm;57653;51.434;5.984;2023-03-01T00:00:29;52.04;37.84;58.50;;
69619;Laerm;57653;51.434;5.984;2023-03-01T00:00:40;58.60;55.44;61.78;;
69619;Laerm;57653;51.434;5.984;2023-03-01T00:00:50;58.18;55.73;61.21;;
69619;Laerm;57653;51.434;5.984;2023-03-01T00:01:04;57.65;49.28;62.11;;
69619;Laerm;57653;51.434;5.984;2023-03-01T00:01:16;45.39;33.39;55.08;;
69619;Laerm;57653;51.434;5.984;2023-03-01T00:01:28;32.75;30.84;35.84;;
69619;Laerm;57653;51.434;5.984;2023-03-01T00:01:38;31.34;30.19;33.29;;
69619;Laerm;57653;51.434;5.984;2023-03-01T00:01:48;31.11;29.98;32.81;;
69619;Laerm;57653;51.434;5.984;2023-03-01T00:01:59;30.94;29.60;32.08;;
69619;Laerm;57653;51.434;5.984;2023-03-01T00:02:09;31.04;29.76;32.93;;
69619;Laerm;57653;51.434;5.984;2023-03-01T00:02:19;30.84;29.72;32.00;;
69619;Laerm;57653;51.434;5.984;2023-03-01T00:02:30;30.78;29.57;31.80;;
69619;Laerm;57653;51.434;5.984;2023-03-01T00:02:40;30.86;29.79;31.86;;
69619;Laerm;57653;51.434;5.984;2023-03-01T00:02:50;30.78;29.76;31.86;;
69619;Laerm;57653;51.434;5.984;2023-03-01T00:03:00;30.94;29.89;32.23;;
69619;Laerm;57653;51.434;5.984;2023-03-01T00:03:11;30.78;29.71;31.60;;
69619;Laerm;57653;51.434;5.984;2023-03-01T00:03:21;30.69;29.34;31.75;;
69619;Laerm;57653;51.434;5.984;2023-03-01T00:03:31;30.67;29.31;31.92;;
69619;Laerm;57653;51.434;5.984;2023-03-01T00:03:42;30.74;29.70;31.87;;
69619;Laerm;57653;51.434;5.984;2023-03-01T00:03:52;30.64;29.58;31.64;;
69619;Laerm;57653;51.434;5.984;2023-03-01T00:04:03;30.82;29.62;39.98;;
69619;Laerm;57653;51.434;5.984;2023-03-01T00:04:13;30.69;29.60;31.80;;
69619;Laerm;57653;51.434;5.984;2023-03-01T00:04:23;30.61;29.67;31.66;;
69619;Laerm;57653;51.434;5.984;2023-03-01T00:04:34;30.60;29.38;31.65;;
69619;Laerm;57653;51.434;5.984;2023-03-01T00:04:45;30.64;29.71;31.72;;
69619;Laerm;57653;51.434;5.984;2023-03-01T00:04:55;30.63;29.69;31.74;;
69619;Laerm;57653;51.434;5.984;2023-03-01T00:05:06;30.69;29.74;31.78;;
69619;Laerm;57653;51.434;5.984;2023-03-01T00:05:17;30.70;29.47;31.92;;
69619;Laerm;57653;51.434;5.984;2023-03-01T00:05:27;30.67;29.78;31.73;;
69619;Laerm;57653;51.434;5.984;2023-03-01T00:05:43;30.68;29.43;31.70;;
69619;Laerm;57653;51.434;5.984;2023-03-01T00:05:53;30.65;29.42;31.77;;
69619;Laerm;57653;51.434;5.984;2023-03-01T00:06:04;30.63;29.54;31.60;;
69619;Laerm;57653;51.434;5.984;2023-03-01T00:06:14;30.70;29.59;31.98;;
69619;Laerm;57653;51.434;5.984;2023-03-01T00:06:25;30.75;29.75;32.12;;
69619;Laerm;57653;51.434;5.984;2023-03-01T00:06:36;30.68;29.41;32.13;;
69619;Laerm;57653;51.434;5.984;2023-03-01T00:06:47;30.68;29.58;31.77;;
69619;Laerm;57653;51.434;5.984;2023-03-01T00:06:57;30.69;29.60;31.64;;
69619;Laerm;57653;51.434;5.984;2023-03-01T00:07:08;30.72;29.59;35.17;;
69619;Laerm;57653;51.434;5.984;2023-03-01T00:07:18;30.70;29.64;31.64;;
69619;Laerm;57653;51.434;5.984;2023-03-01T00:07:28;30.69;29.54;32.05;;
69619;Laerm;57653;51.434;5.984;2023-03-01T00:07:38;30.71;29.76;31.63;;
69619;Laerm;57653;51.434;5.984;2023-03-01T00:07:51;30.71;29.38;31.72;;
69619;Laerm;57653;51.434;5.984;2023-03-01T00:08:02;30.68;29.64;31.84;;
69619;Laerm;57653;51.434;5.984;2023-03-01T00:08:12;30.71;29.68;31.63;;
69619;Laerm;57653;51.434;5.984;2023-03-01T00:08:22;30.67;29.65;31.71;;
69619;Laerm;57653;51.434;5.984;2023-03-01T00:08:33;30.71;29.44;31.86;;
69619;Laerm;57653;51.434;5.984;2023-03-01T00:08:43;30.68;29.70;31.65;;
69619;Laerm;57653;51.434;5.984;2023-03-01T00:08:53;30.67;29.44;31.65;;
69619;Laerm;57653;51.434;5.984;2023-03-01T00:09:04;30.62;29.40;31.65;;
69619;Laerm;57653;51.434;5.984;2023-03-01T00:09:15;30.61;29.63;31.49;;
69619;Laerm;57653;51.434;5.984;2023-03-01T00:09:25;30.66;29.46;32.06;;
69619;Laerm;57653;51.434;5.984;2023-03-01T00:09:36;30.63;29.46;31.63;;
69619;Laerm;57653;51.434;5.984;2023-03-01T00:09:46;30.62;29.71;31.67;;
69619;Laerm;57653;51.434;5.984;2023-03-01T00:09:57;30.67;29.46;31.85;;
69619;Laerm;57653;51.434;5.984;2023-03-01T00:10:07;30.68;29.64;31.63;;
69619;Laerm;57653;51.434;5.984;2023-03-01T00:10:17;30.69;29.78;31.49;;
69619;Laerm;57653;51.434;5.984;2023-03-01T00:10:28;30.68;29.91;31.60;;
69619;Laerm;57653;51.434;5.984;2023-03-01T00:10:38;30.67;29.34;31.65;;
69619;Laerm;57653;51.434;5.984;2023-03-01T00:10:48;30.65;29.59;31.60;;
69619;Laerm;57653;51.434;5.984;2023-03-01T00:11:03;30.68;29.62;31.83;;
69619;Laerm;57653;51.434;5.984;2023-03-01T00:11:15;30.70;29.40;31.77;;
69619;Laerm;57653;51.434;5.984;2023-03-01T00:11:26;30.67;29.66;31.71;;
69619;Laerm;57653;51.434;5.984;2023-03-01T00:11:37;30.68;29.47;31.67;;
69619;Laerm;57653;51.434;5.984;2023-03-01T00:11:47;30.68;29.51;31.64;;
69619;Laerm;57653;51.434;5.984;2023-03-01T00:11:57;30.68;29.56;31.46;;
69619;Laerm;57653;51.434;5.984;2023-03-01T00:12:08;30.76;29.76;31.71;;
69619;Laerm;57653;51.434;5.984;2023-03-01T00:12:18;30.68;29.61;31.81;;
69619;Laerm;57653;51.434;5.984;2023-03-01T00:12:28;30.75;29.53;31.85;;
69619;Laerm;57653;51.434;5.984;2023-03-01T00:12:38;30.65;29.73;31.82;;
69619;Laerm;57653;51.434;5.984;2023-03-01T00:12:49;30.70;29.52;31.63;;
69619;Laerm;57653;51.434;5.984;2023-03-01T00:12:59;30.73;29.58;31.82;;
69619;Laerm;57653;51.434;5.984;2023-03-01T00:13:09;30.71;29.41;31.85;;
69619;Laerm;57653;51.434;5.984;2023-03-01T00:13:19;30.65;29.50;31.60;;
69619;Laerm;57653;51.434;5.984;2023-03-01T00:13:30;30.79;29.76;34.93;;
69619;Laerm;57653;51.434;5.984;2023-03-01T00:13:40;30.70;29.70;31.70;;
69619;Laerm;57653;51.434;5.984;2023-03-01T00:13:51;30.80;29.71;31.84;;
69619;Laerm;57653;51.434;5.984;2023-03-01T00:14:02;30.76;29.43;31.70;;
69619;Laerm;57653;51.434;5.984;2023-03-01T00:14:15;30.78;29.50;32.04;;
69619;Laerm;57653;51.434;5.984;2023-03-01T00:14:27;30.78;29.87;31.75;;
69619;Laerm;57653;51.434;5.984;2023-03-01T00:14:37;30.79;29.62;31.75;;
69619;Laerm;57653;51.434;5.984;2023-03-01T00:14:47;30.81;29.82;32.05;;
69619;Laerm;57653;51.434;5.984;2023-03-01T00:14:58;30.80;29.64;31.71;;
69619;Laerm;57653;51.434;5.984;2023-03-01T00:15:08;30.80;29.66;32.09;;
69619;Laerm;57653;51.434;5.984;2023-03-01T00:15:18;30.82;29.66;32.81;;
69619;Laerm;57653;51.434;5.984;2023-03-01T00:15:28;30.83;29.41;31.71;;
69619;Laerm;57653;51.434;5.984;2023-03-01T00:15:39;30.82;29.51;31.84;;
69619;Laerm;57653;51.434;5.984;2023-03-01T00:15:50;30.85;29.88;31.86;;
69619;Laerm;57653;51.434;5.984;2023-03-01T00:16:04;30.88;29.88;31.69;;
69619;Laerm;57653;51.434;5.984;2023-03-01T00:16:15;30.89;29.77;32.07;;
69619;Laerm;57653;51.434;5.984;2023-03-01T00:16:31;30.84;29.92;31.96;;
69619;Laerm;57653;51.434;5.984;2023-03-01T00:16:43;30.85;29.68;32.08;;
69619;Laerm;57653;51.434;5.984;2023-03-01T00:16:54;30.84;29.77;32.18;;
69619;Laerm;57653;51.434;5.984;2023-03-01T00:17:04;30.90;29.73;32.05;;
69619;Laerm;57653;51.434;5.984;2023-03-01T00:17:14;30.84;29.81;31.89;;
69619;Laerm;57653;51.434;5.984;2023-03-01T00:17:24;30.85;29.79;32.11;;
69619;Laerm;57653;51.434;5.984;2023-03-01T00:17:34;30.79;29.63;32.49;;
69619;Laerm;57653;51.434;5.984;2023-03-01T00:17:45;30.90;29.37;31.80;;
69619;Laerm;57653;51.434;5.984;2023-03-01T00:17:55;30.85;29.75;31.85;;
69619;Laerm;57653;51.434;5.984;2023-03-01T00:18:05;30.84;29.76;32.39;;
69619;Laerm;57653;51.434;5.984;2023-03-01T00:18:16;30.87;29.92;31.75;;
69619;Laerm;57653;51.434;5.984;2023-03-01T00:18:26;30.91;29.56;31.95;;
69619;Laerm;57653;51.434;5.984;2023-03-01T00:18:36;30.93;29.80;31.81;;
69619;Laerm;57653;51.434;5.984;2023-03-01T00:18:47;30.88;29.74;32.09;;
69619;Laerm;57653;51.434;5.984;2023-03-01T00:18:57;30.89;29.77;31.94;;
69619;Laerm;57653;51.434;5.984;2023-03-01T00:19:08;30.88;29.67;31.92;;
69619;Laerm;57653;51.434;5.984;2023-03-01T00:19:19;30.89;29.48;31.99;;
69619;Laerm;57653;51.434;5.984;2023-03-01T00:19:30;30.92;29.57;32.24;;
69619;Laerm;57653;51.434;5.984;2023-03-01T00:19:42;30.89;29.62;33.40;;
69619;Laerm;57653;51.434;5.984;2023-03-01T00:19:52;30.87;29.64;31.81;;
69619;Laerm;57653;51.434;5.984;2023-03-01T00:20:03;30.90;29.80;31.87;;
69619;Laerm;57653;51.434;5.984;2023-03-01T00:20:13;30.93;29.46;31.96;;
69619;Laerm;57653;51.434;5.984;2023-03-01T00:20:25;30.91;29.81;32.09;;
69619;Laerm;57653;51.434;5.984;2023-03-01T00:20:35;30.94;29.96;31.82;;
69619;Laerm;57653;51.434;5.984;2023-03-01T00:20:52;31.01;29.96;32.25;;
69619;Laerm;57653;51.434;5.984;2023-03-01T00:21:02;30.98;29.85;32.12;;
69619;Laerm;57653;51.434;5.984;2023-03-01T00:21:13;31.04;29.85;32.21;;
69619;Laerm;57653;51.434;5.984;2023-03-01T00:21:24;31.08;30.16;32.24;;
69619;Laerm;57653;51.434;5.984;2023-03-01T00:21:34;31.13;30.06;32.21;;
69619;Laerm;57653;51.434;5.984;2023-03-01T00:21:45;31.13;30.01;32.37;;
69619;Laerm;57653;51.434;5.984;2023-03-01T00:21:55;31.06;30.09;32.25;;
69619;Laerm;57653;51.434;5.984;2023-03-01T00:22:05;31.11;29.86;32.46;;
69619;Laerm;57653;51.434;5.984;2023-03-01T00:22:15;31.06;29.95;32.11;;
69619;Laerm;57653;51.434;5.984;2023-03-01T00:22:26;31.03;29.94;32.04;;
69619;Laerm;57653;51.434;5.984;2023-03-01T00:22:38;30.95;29.71;32.52;;
69619;Laerm;57653;51.434;5.984;2023-03-01T00:22:48;30.97;29.85;32.25;;
69619;Laerm;57653;51.434;5.984;2023-03-01T00:22:58;31.01;29.73;38.73;;
69619;Laerm;57653;51.434;5.984;2023-03-01T00:23:09;30.87;29.71;31.90;;
69619;Laerm;57653;51.434;5.984;2023-03-01T00:23:19;30.89;29.91;31.97;;
69619;Laerm;57653;51.434;5.984;2023-03-01T00:23:29;30.85;29.82;31.90;;
69619;Laerm;57653;51.434;5.984;2023-03-01T00:23:40;30.88;29.54;32.61;;
69619;Laerm;57653;51.434;5.984;2023-03-01T00:23:50;30.85;29.85;32.12;;
69619;Laerm;57653;51.434;5.984;2023-03-01T00:24:01;30.86;29.55;31.72;;
69619;Laerm;57653;51.434;5.984;2023-03-01T00:24:11;30.84;29.66;31.80;;
69619;Laerm;57653;51.434;5.984;2023-03-01T00:24:22;30.89;29.88;31.94;;
69619;Laerm;57653;51.434;5.984;2023-03-01T00:24:32;30.91;29.67;32.28;;
69619;Laerm;57653;51.434;5.984;2023-03-01T00:24:42;30.95;29.64;32.75;;
69619;Laerm;57653;51.434;5.984;2023-03-01T00:24:52;30.86;29.89;31.87;;
69619;Laerm;57653;51.434;5.984;2023-03-01T00:25:03;30.86;29.37;32.11;;
69619;Laerm;57653;51.434;5.984;2023-03-01T00:25:13;30.95;29.85;33.26;;
69619;Laerm;57653;51.434;5.984;2023-03-01T00:25:24;30.95;29.83;32.26;;
69619;Laerm;57653;51.434;5.984;2023-03-01T00:25:40;30.96;29.70;32.15;;
69619;Laerm;57653;51.434;5.984;2023-03-01T00:25:50;31.00;29.79;31.93;;
69619;Laerm;57653;51.434;5.984;2023-03-01T00:26:01;30.97;29.98;32.05;;
69619;Laerm;57653;51.434;5.984;2023-03-01T00:26:12;31.05;29.99;32.09;;
69619;Laerm;57653;51.434;5.984;2023-03-01T00:26:23;31.03;29.77;32.19;;
69619;Laerm;57653;51.434;5.984;2023-03-01T00:26:33;31.08;30.12;32.25;;
69619;Laerm;57653;51.434;5.984;2023-03-01T00:26:44;31.09;29.61;32.57;;
69619;Laerm;57653;51.434;5.984;2023-03-01T00:26:54;31.07;29.91;32.12;;
69619;Laerm;57653;51.434;5.984;2023-03-01T00:27:05;31.05;30.08;32.33;;
69619;Laerm;57653;51.434;5.984;2023-03-01T00:27:16;31.07;29.96;32.30;;
69619;Laerm;57653;51.434;5.984;2023-03-01T00:27:26;31.02;29.95;31.90;;
69619;Laerm;57653;51.434;5.984;2023-03-01T00:27:36;30.97;29.94;32.02;;
69619;Laerm;57653;51.434;5.984;2023-03-01T00:27:46;30.98;29.79;31.89;;
69619;Laerm;57653;51.434;5.984;2023-03-01T00:27:57;30.98;29.84;32.32;;
69619;Laerm;57653;51.434;5.984;2023-03-01T00:28:07;30.98;29.88;31.94;;
69619;Laerm;57653;51.434;5.984;2023-03-01T00:28:18;30.92;29.59;31.92;;
69619;Laerm;57653;51.434;5.984;2023-03-01T00:28:28;30.90;29.67;31.91;;
69619;Laerm;57653;51.434;5.984;2023-03-01T00:28:38;30.93;29.93;32.32;;
69619;Laerm;57653;51.434;5.984;2023-03-01T00:28:48;30.90;29.94;31.87;;
69619;Laerm;57653;51.434;5.984;2023-03-01T00:28:59;30.91;29.80;31.97;;
69619;Laerm;57653;51.434;5.984;2023-03-01T00:29:09;30.88;29.88;31.85;;
69619;Laerm;57653;51.434;5.984;2023-03-01T00:29:20;30.90;29.77;31.92;;
69619;Laerm;57653;51.434;5.984;2023-03-01T00:29:30;30.93;29.80;32.17;;
69619;Laerm;57653;51.434;5.984;2023-03-01T00:29:40;30.92;29.65;32.01;;
69619;Laerm;57653;51.434;5.984;2023-03-01T00:29:50;30.91;29.71;32.07;;
69619;Laerm;57653;51.434;5.984;2023-03-01T00:30:02;30.87;29.77;32.12;;
69619;Laerm;57653;51.434;5.984;2023-03-01T00:30:12;30.90;29.95;32.03;;
69619;Laerm;57653;51.434;5.984;2023-03-01T00:30:23;30.88;29.84;31.76;;
69619;Laerm;57653;51.434;5.984;2023-03-01T00:30:33;30.87;29.93;32.03;;
69619;Laerm;57653;51.434;5.984;2023-03-01T00:30:43;30.82;29.42;31.88;;
69619;Laerm;57653;51.434;5.984;2023-03-01T00:30:53;30.82;29.78;32.01;;
69619;Laerm;57653;51.434;5.984;2023-03-01T00:31:05;30.83;29.95;31.78;;
69619;Laerm;57653;51.434;5.984;2023-03-01T00:31:16;34.00;29.86;45.15;;
69619;Laerm;57653;51.434;5.984;2023-03-01T00:31:28;30.83;29.81;31.92;;
69619;Laerm;57653;51.434;5.984;2023-03-01T00:31:39;30.80;29.82;31.88;;
69619;Laerm;57653;51.434;5.984;2023-03-01T00:31:49;30.88;29.81;32.19;;
69619;Laerm;57653;51.434;5.984;2023-03-01T00:31:59;30.86;29.79;32.19;;
69619;Laerm;57653;51.434;5.984;2023-03-01T00:32:10;30.84;29.85;32.07;;
69619;Laerm;57653;51.434;5.984;2023-03-01T00:32:20;30.84;29.78;31.95;;
69619;Laerm;57653;51.434;5.984;2023-03-01T00:32:30;30.88;29.83;31.92;;
69619;Laerm;57653;51.434;5.984;2023-03-01T00:32:40;30.83;29.63;32.10;;
69619;Laerm;57653;51.434;5.984;2023-03-01T00:32:51;30.85;29.89;31.99;;
69619;Laerm;57653;51.434;5.984;2023-03-01T00:33:01;30.82;29.63;31.77;;
69619;Laerm;57653;51.434;5.984;2023-03-01T00:33:11;30.83;29.66;31.75;;
69619;Laerm;57653;51.434;5.984;2023-03-01T00:33:21;30.86;29.80;32.02;;
69619;Laerm;57653;51.434;5.984;2023-03-01T00:33:32;30.85;29.87;31.99;;
69619;Laerm;57653;51.434;5.984;2023-03-01T00:33:42;30.83;29.60;31.71;;
69619;Laerm;57653;51.434;5.984;2023-03-01T00:33:53;30.86;29.86;31.89;;
69619;Laerm;57653;51.434;5.984;2023-03-01T00:34:07;30.89;29.93;32.58;;
69619;Laerm;57653;51.434;5.984;2023-03-01T00:34:17;30.95;29.73;33.48;;
69619;Laerm;57653;51.434;5.984;2023-03-01T00:34:28;30.85;29.91;32.05;;
69619;Laerm;57653;51.434;5.984;2023-03-01T00:34:38;30.81;29.90;31.89;;
69619;Laerm;57653;51.434;5.984;2023-03-01T00:34:48;30.84;29.65;31.74;;
69619;Laerm;57653;51.434;5.984;2023-03-01T00:35:04;30.85;29.47;34.82;;
69619;Laerm;57653;51.434;5.984;2023-03-01T00:35:15;30.86;29.76;33.09;;
69619;Laerm;57653;51.434;5.984;2023-03-01T00:35:26;30.86;29.69;31.98;;
69619;Laerm;57653;51.434;5.984;2023-03-01T00:35:36;30.86;29.83;31.96;;
69619;Laerm;57653;51.434;5.984;2023-03-01T00:35:46;30.88;29.79;32.37;;
69619;Laerm;57653;51.434;5.984;2023-03-01T00:35:59;30.86;29.74;31.89;;
69619;Laerm;57653;51.434;5.984;2023-03-01T00:36:11;30.82;29.87;31.65;;
69619;Laerm;57653;51.434;5.984;2023-03-01T00:36:22;30.95;29.70;32.25;;
69619;Laerm;57653;51.434;5.984;2023-03-01T00:36:34;31.19;29.96;32.15;;
69619;Laerm;57653;51.434;5.984;2023-03-01T00:36:44;30.98;29.82;31.91;;
69619;Laerm;57653;51.434;5.984;2023-03-01T00:36:55;31.34;30.00;33.62;;
69619;Laerm;57653;51.434;5.984;2023-03-01T00:37:05;33.03;30.79;40.23;;
69619;Laerm;57653;51.434;5.984;2023-03-01T00:37:15;54.35;36.38;61.54;;
69619;Laerm;57653;51.434;5.984;2023-03-01T00:37:26;63.57;60.01;65.94;;
69619;Laerm;57653;51.434;5.984;2023-03-01T00:37:36;65.77;63.61;68.03;;
69619;Laerm;57653;51.434;5.984;2023-03-01T00:37:46;64.96;56.73;68.36;;
69619;Laerm;57653;51.434;5.984;2023-03-01T00:37:56;51.58;46.25;57.91;;
69619;Laerm;57653;51.434;5.984;2023-03-01T00:38:07;44.17;38.42;48.54;;
69619;Laerm;57653;51.434;5.984;2023-03-01T00:38:18;39.11;36.14;42.55;;
69619;Laerm;57653;51.434;5.984;2023-03-01T00:38:28;39.34;36.27;43.29;;
69619;Laerm;57653;51.434;5.984;2023-03-01T00:38:39;37.21;34.12;41.43;;
69619;Laerm;57653;51.434;5.984;2023-03-01T00:38:49;35.65;32.62;39.24;;
69619;Laerm;57653;51.434;5.984;2023-03-01T00:39:00;33.44;31.45;35.69;;
69619;Laerm;57653;51.434;5.984;2023-03-01T00:39:11;33.19;31.48;35.08;;
69619;Laerm;57653;51.434;5.984;2023-03-01T00:39:23;33.07;30.99;35.29;;
69619;Laerm;57653;51.434;5.984;2023-03-01T00:39:33;32.78;31.31;34.41;;
69619;Laerm;57653;51.434;5.984;2023-03-01T00:39:44;32.38;30.87;33.97;;
69619;Laerm;57653;51.434;5.984;2023-03-01T00:39:54;32.28;30.90;33.58;;
69619;Laerm;57653;51.434;5.984;2023-03-01T00:40:04;31.67;30.07;33.16;;
69619;Laerm;57653;51.434;5.984;2023-03-01T00:40:16;31.82;30.62;33.20;;
69619;Laerm;57653;51.434;5.984;2023-03-01T00:40:27;32.03;30.54;33.63;;
69619;Laerm;57653;51.434;5.984;2023-03-01T00:40:37;32.00;30.62;33.69;;
69619;Laerm;57653;51.434;5.984;2023-03-01T00:40:47;31.69;30.37;34.65;;
69619;Laerm;57653;51.434;5.984;2023-03-01T00:41:02;32.34;30.64;34.79;;
69619;Laerm;57653;51.434;5.984;2023-03-01T00:41:14;56.97;33.66;63.64;;
69619;Laerm;57653;51.434;5.984;2023-03-01T00:41:25;48.52;33.24;58.14;;
69619;Laerm;57653;51.434;5.984;2023-03-01T00:41:38;32.39;30.32;36.92;;
69619;Laerm;57653;51.434;5.984;2023-03-01T00:41:50;34.00;30.78;39.10;;
69619;Laerm;57653;51.434;5.984;2023-03-01T00:42:00;33.97;30.62;39.07;;
69619;Laerm;57653;51.434;5.984;2023-03-01T00:42:11;32.72;30.03;39.40;;
69619;Laerm;57653;51.434;5.984;2023-03-01T00:42:21;31.15;29.86;32.22;;
69619;Laerm;57653;51.434;5.984;2023-03-01T00:42:32;31.17;30.11;32.96;;
69619;Laerm;57653;51.434;5.984;2023-03-01T00:42:42;31.24;30.00;32.38;;
69619;Laerm;57653;51.434;5.984;2023-03-01T00:42:52;31.05;29.63;32.13;;
69619;Laerm;57653;51.434;5.984;2023-03-01T00:43:03;31.06;29.90;32.03;;
69619;Laerm;57653;51.434;5.984;2023-03-01T00:43:13;31.07;29.81;32.16;;
69619;Laerm;57653;51.434;5.984;2023-03-01T00:43:23;31.06;30.07;32.96;;
69619;Laerm;57653;51.434;5.984;2023-03-01T00:43:34;31.05;29.53;32.00;;
69619;Laerm;57653;51.434;5.984;2023-03-01T00:43:46;31.07;29.81;32.36;;
69619;Laerm;57653;51.434;5.984;2023-03-01T00:43:56;31.08;30.01;32.59;;
69619;Laerm;57653;51.434;5.984;2023-03-01T00:44:07;31.11;29.92;32.40;;
69619;Laerm;57653;51.434;5.984;2023-03-01T00:44:17;31.59;30.19;34.54;;
69619;Laerm;57653;51.434;5.984;2023-03-01T00:44:27;31.87;30.22;34.11;;
69619;Laerm;57653;51.434;5.984;2023-03-01T00:44:38;33.04;30.44;37.33;;
69619;Laerm;57653;51.434;5.984;2023-03-01T00:44:48;32.92;30.95;35.93;;
69619;Laerm;57653;51.434;5.984;2023-03-01T00:44:58;31.27;30.26;32.43;;
69619;Laerm;57653;51.434;5.984;2023-03-01T00:45:09;34.35;31.13;38.50;;
69619;Laerm;57653;51.434;5.984;2023-03-01T00:45:19;31.64;30.17;36.50;;
69619;Laerm;57653;51.434;5.984;2023-03-01T00:45:30;31.14;29.95;33.01;;
69619;Laerm;57653;51.434;5.984;2023-03-01T00:45:41;31.44;29.83;37.07;;
69619;Laerm;57653;51.434;5.984;2023-03-01T00:45:51;31.34;29.93;34.83;;
69619;Laerm;57653;51.434;5.984;2023-03-01T00:46:02;31.08;30.14;33.57;;
69619;Laerm;57653;51.434;5.984;2023-03-01T00:46:13;31.19;29.96;36.39;;
69619;Laerm;57653;51.434;5.984;2023-03-01T00:46:25;30.88;29.81;31.80;;
69619;Laerm;57653;51.434;5.984;2023-03-01T00:46:36;30.89;29.94;31.73;;
69619;Laerm;57653;51.434;5.984;2023-03-01T00:46:46;30.85;29.81;31.95;;
69619;Laerm;57653;51.434;5.984;2023-03-01T00:46:56;30.96;29.81;32.18;;
69619;Laerm;57653;51.434;5.984;2023-03-01T00:47:06;31.29;29.95;36.43;;
69619;Laerm;57653;51.434;5.984;2023-03-01T00:47:17;31.81;29.84;38.94;;
69619;Laerm;57653;51.434;5.984;2023-03-01T00:47:29;30.92;29.83;31.85;;
69619;Laerm;57653;51.434;5.984;2023-03-01T00:47:39;31.08;29.60;33.71;;
69619;Laerm;57653;51.434;5.984;2023-03-01T00:47:50;30.91;29.78;32.32;;
69619;Laerm;57653;51.434;5.984;2023-03-01T00:48:00;30.90;29.67;32.21;;
69619;Laerm;57653;51.434;5.984;2023-03-01T00:48:10;30.88;29.98;32.00;;
69619;Laerm;57653;51.434;5.984;2023-03-01T00:48:21;30.84;29.98;31.70;;
69619;Laerm;57653;51.434;5.984;2023-03-01T00:48:31;30.94;29.94;32.17;;
69619;Laerm;57653;51.434;5.984;2023-03-01T00:48:41;30.94;29.35;32.12;;
69619;Laerm;57653;51.434;5.984;2023-03-01T00:48:51;30.95;29.73;31.95;;
69619;Laerm;57653;51.434;5.984;2023-03-01T00:49:02;31.14;30.10;32.90;;
69619;Laerm;57653;51.434;5.984;2023-03-01T00:49:14;31.16;29.72;36.42;;
69619;Laerm;57653;51.434;5.984;2023-03-01T00:49:24;31.21;29.94;36.73;;
69619;Laerm;57653;51.434;5.984;2023-03-01T00:49:37;31.21;30.04;32.65;;
69619;Laerm;57653;51.434;5.984;2023-03-01T00:49:47;31.13;30.07;32.77;;
69619;Laerm;57653;51.434;5.984;2023-03-01T00:49:58;31.35;29.80;34.50;;
69619;Laerm;57653;51.434;5.984;2023-03-01T00:50:08;31.26;30.15;34.17;;
69619;Laerm;57653;51.434;5.984;2023-03-01T00:50:19;31.12;29.97;37.53;;
69619;Laerm;57653;51.434;5.984;2023-03-01T00:50:31;31.07;30.09;32.26;;
69619;Laerm;57653;51.434;5.984;2023-03-01T00:50:41;31.06;29.86;33.69;;
69619;Laerm;57653;51.434;5.984;2023-03-01T00:50:51;30.90;29.89;32.31;;
69619;Laerm;57653;51.434;5.984;2023-03-01T00:51:08;30.94;29.78;31.92;;
69619;Laerm;57653;51.434;5.984;2023-03-01T00:51:20;30.88;29.71;31.83;;
69619;Laerm;57653;51.434;5.984;2023-03-01T00:51:30;30.87;29.94;31.81;;
69619;Laerm;57653;51.434;5.984;2023-03-01T00:51:41;30.93;29.67;32.00;;
69619;Laerm;57653;51.434;5.984;2023-03-01T00:51:51;30.90;29.62;31.74;;
69619;Laerm;57653;51.434;5.984;2023-03-01T00:52:01;30.86;29.72;31.79;;
69619;Laerm;57653;51.434;5.984;2023-03-01T00:52:12;30.92;29.80;31.77;;
69619;Laerm;57653;51.434;5.984;2023-03-01T00:52:22;30.94;29.99;32.00;;
69619;Laerm;57653;51.434;5.984;2023-03-01T00:52:32;30.99;29.68;33.72;;
69619;Laerm;57653;51.434;5.984;2023-03-01T00:52:42;31.40;29.84;34.11;;
69619;Laerm;57653;51.434;5.984;2023-03-01T00:52:54;31.36;30.35;33.28;;
69619;Laerm;57653;51.434;5.984;2023-03-01T00:53:04;31.53;29.93;34.34;;
69619;Laerm;57653;51.434;5.984;2023-03-01T00:53:15;32.18;30.20;35.89;;
69619;Laerm;57653;51.434;5.984;2023-03-01T00:53:25;31.98;30.46;37.54;;
69619;Laerm;57653;51.434;5.984;2023-03-01T00:53:35;32.85;30.18;36.46;;
69619;Laerm;57653;51.434;5.984;2023-03-01T00:53:45;35.90;31.81;42.63;;
69619;Laerm;57653;51.434;5.984;2023-03-01T00:53:57;34.50;31.75;37.69;;
69619;Laerm;57653;51.434;5.984;2023-03-01T00:54:08;33.67;30.37;40.22;;
69619;Laerm;57653;51.434;5.984;2023-03-01T00:54:18;31.85;29.87;38.36;;
69619;Laerm;57653;51.434;5.984;2023-03-01T00:54:28;30.90;29.56;31.94;;
69619;Laerm;57653;51.434;5.984;2023-03-01T00:54:39;30.87;29.72;32.66;;
69619;Laerm;57653;51.434;5.984;2023-03-01T00:54:51;30.85;29.66;31.99;;
69619;Laerm;57653;51.434;5.984;2023-03-01T00:55:02;30.88;29.87;31.75;;
69619;Laerm;57653;51.434;5.984;2023-03-01T00:55:12;30.85;29.93;34.09;;
69619;Laerm;57653;51.434;5.984;2023-03-01T00:55:23;31.07;29.76;35.83;;
69619;Laerm;57653;51.434;5.984;2023-03-01T00:55:33;30.86;29.90;32.16;;
69619;Laerm;57653;51.434;5.984;2023-03-01T00:55:43;30.99;29.93;33.69;;
69619;Laerm;57653;51.434;5.984;2023-03-01T00:55:54;30.92;29.91;31.87;;
69619;Laerm;57653;51.434;5.984;2023-03-01T00:56:07;30.90;29.77;31.80;;
69619;Laerm;57653;51.434;5.984;2023-03-01T00:56:18;30.89;29.57;31.80;;
69619;Laerm;57653;51.434;5.984;2023-03-01T00:56:28;30.90;29.75;35.11;;
69619;Laerm;57653;51.434;5.984;2023-03-01T00:56:39;30.88;29.90;31.83;;
69619;Laerm;57653;51.434;5.984;2023-03-01T00:56:49;30.86;29.56;31.82;;
69619;Laerm;57653;51.434;5.984;2023-03-01T00:57:00;31.23;29.88;43.43;;
69619;Laerm;57653;51.434;5.984;2023-03-01T00:57:10;30.98;30.02;32.25;;
69619;Laerm;57653;51.434;5.984;2023-03-01T00:57:20;30.89;30.01;31.98;;
69619;Laerm;57653;51.434;5.984;2023-03-01T00:57:30;30.94;29.89;32.14;;
69619;Laerm;57653;51.434;5.984;2023-03-01T00:57:41;31.00;29.90;35.10;;
69619;Laerm;57653;51.434;5.984;2023-03-01T00:57:51;30.95;29.91;32.00;;
69619;Laerm;57653;51.434;5.984;2023-03-01T00:58:01;31.03;29.87;34.56;;
69619;Laerm;57653;51.434;5.984;2023-03-01T00:58:11;30.98;30.09;31.89;;
69619;Laerm;57653;51.434;5.984;2023-03-01T00:58:21;30.94;29.74;31.83;;
69619;Laerm;57653;51.434;5.984;2023-03-01T00:58:32;30.96;29.99;32.94;;
69619;Laerm;57653;51.434;5.984;2023-03-01T00:58:42;30.96;29.81;31.96;;
69619;Laerm;57653;51.434;5.984;2023-03-01T00:58:53;31.09;29.89;32.39;;
69619;Laerm;57653;51.434;5.984;2023-03-01T00:59:03;31.00;29.81;32.08;;
69619;Laerm;57653;51.434;5.984;2023-03-01T00:59:13;30.93;29.84;31.98;;
69619;Laerm;57653;51.434;5.984;2023-03-01T00:59:23;30.94;29.90;32.25;;
69619;Laerm;57653;51.434;5.984;2023-03-01T00:59:33;30.86;29.86;31.89;;
69619;Laerm;57653;51.434;5.984;2023-03-01T00:59:44;30.87;29.76;31.79;;
69619;Laerm;57653;51.434;5.984;2023-03-01T00:59:55;30.89;29.69;32.04;;
69619;Laerm;57653;51.434;5.984;2023-03-01T01:00:06;30.91;29.66;31.93;;